Frederick Airpark


Codes: 0PS0/
Name: Frederick Airpark
City: Tylersburg
Country: United States
Elevation: 1560 ft.

Photos at Frederick Airpark


   Photos courtesy of SpottingLog. You can add your own sightings and photos by signing up for a free trial today.



No photos found.

Weather at Frederick Airpark


Time (UTC)DescriptionTempratureWindCloud coverageVisibilityPressureHumidity
19-Apr-2024 06:00Broken Clouds9°C4 mph, SE77%10000m1016hPa91%
19-Apr-2024 09:00Broken Clouds9°C7 mph, SE79%10000m1015hPa91%
19-Apr-2024 12:00Overcast Clouds11°C9 mph, SE91%10000m1013hPa90%
19-Apr-2024 15:00Light Rain12°C9 mph, S100%10000m1012hPa91%
19-Apr-2024 18:00Light Rain13°C9 mph, SW100%10000m1012hPa97%
19-Apr-2024 21:00Light Rain10°C9 mph, NW100%10000m1014hPa86%
20-Apr-2024 00:00Overcast Clouds7°C4 mph, NW98%10000m1017hPa85%
20-Apr-2024 03:00Overcast Clouds5°C4 mph, W93%10000m1018hPa88%
20-Apr-2024 06:00Overcast Clouds4°C2 mph, W94%10000m1018hPa83%
20-Apr-2024 09:00Scattered Clouds2°C4 mph, SW48%10000m1018hPa85%
20-Apr-2024 12:00Scattered Clouds4°C7 mph, W28%10000m1018hPa79%
20-Apr-2024 15:00Scattered Clouds7°C16 mph, W37%10000m1019hPa51%
20-Apr-2024 18:00Broken Clouds8°C16 mph, W68%10000m1018hPa42%
20-Apr-2024 21:00Overcast Clouds7°C13 mph, NW100%10000m1018hPa45%
21-Apr-2024 00:00Overcast Clouds3°C7 mph, NW86%10000m1020hPa66%
21-Apr-2024 03:00Clear Sky1°C4 mph, W6%10000m1020hPa81%
21-Apr-2024 06:00Clear Sky-0°C4 mph, W6%10000m1020hPa86%
21-Apr-2024 09:00Scattered Clouds-1°C2 mph, W36%10000m1020hPa94%
21-Apr-2024 12:00Broken Clouds2°C7 mph, W58%10000m1021hPa80%
21-Apr-2024 15:00Overcast Clouds7°C9 mph, W100%10000m1020hPa51%
21-Apr-2024 18:00Overcast Clouds10°C9 mph, W91%10000m1017hPa41%
21-Apr-2024 21:00Broken Clouds11°C11 mph, W52%10000m1016hPa43%
22-Apr-2024 00:00Scattered Clouds5°C7 mph, NW31%10000m1018hPa62%
22-Apr-2024 03:00Clear Sky2°C4 mph, SW1%10000m1018hPa77%
22-Apr-2024 06:00Clear Sky1°C4 mph, W3%10000m1018hPa89%
22-Apr-2024 09:00Clear Sky0°C2 mph, W1%10000m1018hPa92%
22-Apr-2024 12:00Clear Sky4°C2 mph, W1%10000m1019hPa75%
22-Apr-2024 15:00Clear Sky10°C7 mph, W0%10000m1018hPa48%
22-Apr-2024 18:00Few Clouds14°C7 mph, W20%10000m1016hPa42%
22-Apr-2024 21:00Overcast Clouds13°C7 mph, NW93%10000m1015hPa47%
23-Apr-2024 00:00Overcast Clouds9°C2 mph, NW96%10000m1016hPa68%
23-Apr-2024 03:00Scattered Clouds5°C0 mph, SE46%10000m1018hPa86%
23-Apr-2024 06:00Scattered Clouds4°C4 mph, S38%10000m1018hPa89%
23-Apr-2024 09:00Broken Clouds4°C4 mph, S83%10000m1017hPa89%
23-Apr-2024 12:00Overcast Clouds6°C7 mph, S92%10000m1017hPa77%
23-Apr-2024 15:00Overcast Clouds12°C13 mph, S100%10000m1014hPa55%
23-Apr-2024 18:00Light Rain11°C9 mph, SW100%10000m1013hPa78%
23-Apr-2024 21:00Light Rain10°C13 mph, SW100%10000m1012hPa81%
24-Apr-2024 00:00Light Rain9°C13 mph, SW100%10000m1011hPa91%
24-Apr-2024 03:00Moderate Rain9°C9 mph, SW100%6969m1011hPa97%